createdAt,value
2023-05-04T00:02:03.288Z,82.16
2023-05-04T00:04:29.846Z,83.99
2023-05-04T00:06:56.401Z,84.75
2023-05-04T00:09:22.868Z,85.81
2023-05-04T00:11:49.388Z,85.19
2023-05-04T00:14:16.067Z,85.36
2023-05-04T00:16:43.265Z,86.02
2023-05-04T00:19:10.096Z,87.03
2023-05-04T00:21:36.514Z,85.09
2023-05-04T00:24:03.126Z,86.71
2023-05-04T00:26:29.576Z,86.96
2023-05-04T00:28:56.081Z,88.08
2023-05-04T00:31:22.726Z,87.99
2023-05-04T00:33:49.291Z,87.69
2023-05-04T00:36:16.042Z,87.09
2023-05-04T00:38:54.217Z,87.42
2023-05-04T00:41:21.825Z,87.72
2023-05-04T00:43:49.004Z,89.12
2023-05-04T00:46:16.083Z,89.53
2023-05-04T00:48:43.516Z,87.91
2023-05-04T00:51:14.343Z,89.00
2023-05-04T00:53:41.874Z,89.10
2023-05-04T00:56:08.888Z,89.54
2023-05-04T00:58:35.645Z,88.16
2023-05-04T01:01:03.532Z,88.74
2023-05-04T01:03:31.321Z,90.17
2023-05-04T01:06:24.682Z,88.25
2023-05-04T01:09:33.149Z,90.04
2023-05-04T01:12:17.901Z,90.67
2023-05-04T01:14:44.478Z,92.33
2023-05-04T01:17:11.819Z,91.68
2023-05-04T01:19:38.798Z,91.65
2023-05-04T01:22:05.611Z,91.97
2023-05-04T01:24:32.871Z,92.10
2023-05-04T01:27:02.411Z,91.97
2023-05-04T01:29:38.695Z,92.76
2023-05-04T01:32:06.480Z,91.78
2023-05-04T01:34:33.955Z,92.80
2023-05-04T01:37:00.833Z,93.41
2023-05-04T01:39:30.022Z,94.92
2023-05-04T01:41:57.140Z,95.21
2023-05-04T01:44:23.695Z,94.88
2023-05-04T01:46:50.217Z,95.05
2023-05-04T01:49:16.684Z,93.35
2023-05-04T01:51:43.279Z,92.67
2023-05-04T01:54:10.251Z,92.56
2023-05-04T01:56:36.854Z,92.39
2023-05-04T01:59:04.507Z,92.34
2023-05-04T02:01:31.070Z,91.81
2023-05-04T02:03:57.774Z,94.12
2023-05-04T02:06:24.673Z,94.39
2023-05-04T02:08:51.293Z,93.67
2023-05-04T02:11:17.818Z,95.13
2023-05-04T02:13:44.338Z,93.77
2023-05-04T02:16:10.941Z,93.54
2023-05-04T02:18:37.491Z,94.37
2023-05-04T02:21:04.112Z,95.15
2023-05-04T02:23:30.697Z,94.46
2023-05-04T02:25:57.212Z,95.38
2023-05-04T02:28:23.702Z,95.33
2023-05-04T02:30:50.265Z,96.82
2023-05-04T02:33:16.848Z,96.82
2023-05-04T02:35:43.347Z,96.48
2023-05-04T02:38:09.897Z,97.11
2023-05-04T02:40:36.386Z,97.01
2023-05-04T02:43:02.827Z,95.94
2023-05-04T02:45:29.337Z,96.35
2023-05-04T02:47:55.859Z,98.28
2023-05-04T02:50:22.389Z,97.54
2023-05-04T02:52:48.886Z,96.43
2023-05-04T02:55:15.839Z,97.39
2023-05-04T02:57:42.332Z,96.51
2023-05-04T03:00:09.329Z,99.01
2023-05-04T03:02:35.907Z,98.95
2023-05-04T03:05:02.870Z,98.57
2023-05-04T03:07:29.606Z,97.51
2023-05-04T03:09:56.115Z,98.86
2023-05-04T03:12:22.609Z,99.67
2023-05-04T03:14:49.071Z,96.68
2023-05-04T03:17:15.658Z,97.16
2023-05-04T03:19:42.349Z,95.70
2023-05-04T03:22:08.857Z,95.25
2023-05-04T03:24:37.039Z,95.98
2023-05-04T03:27:03.791Z,95.28
2023-05-04T03:29:30.307Z,95.28
2023-05-04T03:31:56.941Z,95.30
2023-05-04T03:34:23.481Z,96.41
2023-05-04T03:36:50.069Z,96.56
2023-05-04T03:39:17.769Z,96.88
2023-05-04T03:41:44.317Z,97.42
2023-05-04T03:44:10.892Z,97.06
2023-05-04T03:46:37.491Z,97.58
2023-05-04T03:49:04.106Z,97.32
2023-05-04T03:51:30.582Z,99.36
2023-05-04T03:53:57.064Z,99.88
2023-05-04T03:56:23.525Z,98.70
2023-05-04T03:58:49.974Z,99.66
2023-05-04T04:01:16.450Z,100.00
2023-05-04T04:03:43.044Z,100.00
2023-05-04T04:06:10.576Z,100.00
2023-05-04T04:08:37.254Z,99.11
2023-05-04T04:11:03.767Z,97.79
2023-05-04T04:13:30.417Z,97.86
2023-05-04T04:15:56.977Z,97.16
2023-05-04T04:18:24.499Z,98.48
2023-05-04T04:20:51.094Z,99.92
2023-05-04T04:23:21.647Z,99.38
2023-05-04T04:25:48.285Z,100.00
2023-05-04T04:28:14.886Z,100.00
2023-05-04T04:30:41.760Z,100.00
2023-05-04T04:33:08.862Z,98.69
2023-05-04T04:35:35.760Z,99.81
2023-05-04T04:38:03.785Z,98.01
2023-05-04T04:40:30.637Z,97.18
2023-05-04T04:42:57.263Z,96.22
2023-05-04T04:45:24.124Z,96.56
2023-05-04T04:47:51.191Z,97.36
2023-05-04T04:50:18.191Z,95.52
2023-05-04T04:52:45.422Z,97.17
2023-05-04T04:55:12.190Z,98.28
2023-05-04T04:57:38.696Z,96.78
2023-05-04T05:00:10.065Z,96.37
2023-05-04T05:02:37.001Z,94.10
2023-05-04T05:05:03.967Z,93.59
2023-05-04T05:07:30.711Z,93.68
2023-05-04T05:09:57.213Z,92.63
2023-05-04T05:12:23.723Z,91.13
2023-05-04T05:14:50.882Z,91.01
2023-05-04T05:17:18.065Z,91.42
2023-05-04T05:19:44.502Z,92.44
2023-05-04T05:22:11.014Z,91.66
2023-05-04T05:24:37.545Z,90.99
2023-05-04T05:27:04.100Z,90.27
2023-05-04T05:29:31.056Z,90.26
2023-05-04T05:31:57.603Z,89.64
2023-05-04T05:34:24.116Z,88.07
2023-05-04T05:36:50.567Z,88.30
2023-05-04T05:39:17.699Z,86.10
2023-05-04T05:41:44.258Z,84.56
2023-05-04T05:44:12.921Z,81.85
2023-05-04T05:46:40.037Z,80.98
2023-05-04T05:49:07.442Z,79.02
2023-05-04T05:51:34.050Z,77.28
2023-05-04T05:54:00.882Z,76.73
2023-05-04T05:56:27.364Z,74.11
2023-05-04T05:58:53.885Z,73.65
2023-05-04T06:01:20.350Z,71.80
2023-05-04T06:03:47.094Z,71.79
2023-05-04T06:06:13.891Z,71.16
2023-05-04T06:08:41.514Z,69.31
2023-05-04T06:11:08.003Z,66.81
2023-05-04T06:13:34.517Z,66.50
2023-05-04T06:16:01.041Z,66.65
2023-05-04T06:18:27.505Z,64.18
2023-05-04T06:21:01.245Z,63.10
2023-05-04T06:23:31.334Z,64.13
2023-05-04T06:25:58.091Z,63.05
2023-05-04T06:28:24.801Z,62.14
2023-05-04T06:30:51.497Z,62.39
2023-05-04T06:33:17.952Z,60.83
2023-05-04T06:35:45.434Z,60.07
2023-05-04T06:38:12.034Z,61.19
2023-05-04T06:40:38.552Z,59.71
2023-05-04T06:43:05.216Z,58.35
2023-05-04T06:45:34.597Z,59.58
2023-05-04T06:48:01.325Z,58.06
2023-05-04T06:50:27.924Z,58.04
2023-05-04T06:53:07.808Z,58.62
2023-05-04T06:55:34.888Z,57.09
2023-05-04T06:58:01.545Z,56.12
2023-05-04T07:00:28.238Z,56.00
2023-05-04T07:02:55.075Z,54.83
2023-05-04T07:05:22.361Z,53.40
2023-05-04T07:07:51.258Z,53.47
2023-05-04T07:10:19.610Z,51.46
2023-05-04T07:12:46.817Z,50.24
2023-05-04T07:15:13.553Z,52.09
2023-05-04T07:17:40.430Z,49.94
2023-05-04T07:20:07.988Z,49.01
2023-05-04T07:22:34.826Z,49.04
2023-05-04T07:25:01.855Z,49.65
2023-05-04T07:27:28.303Z,49.31
2023-05-04T07:29:55.340Z,48.67
2023-05-04T07:32:22.030Z,48.87
2023-05-04T07:34:48.633Z,48.77
2023-05-04T07:37:19.001Z,47.95
2023-05-04T07:39:45.545Z,47.31
2023-05-04T07:42:12.247Z,45.60
2023-05-04T07:44:38.978Z,46.03
2023-05-04T07:47:05.678Z,47.72
2023-05-04T07:49:32.847Z,46.89
2023-05-04T07:51:59.652Z,47.42
2023-05-04T07:54:26.179Z,46.70
2023-05-04T07:56:52.691Z,46.16
2023-05-04T07:59:19.540Z,45.82
2023-05-04T08:01:46.628Z,44.37
2023-05-04T08:04:13.189Z,45.25
2023-05-04T08:06:39.841Z,44.58
2023-05-04T08:09:06.650Z,45.04
2023-05-04T08:11:34.758Z,45.41
2023-05-04T08:14:01.734Z,45.72
2023-05-04T08:16:29.288Z,45.80
2023-05-04T08:18:57.100Z,42.85
2023-05-04T08:21:23.635Z,41.96
2023-05-04T08:23:50.157Z,40.77
2023-05-04T08:26:17.160Z,40.72
2023-05-04T08:28:45.701Z,38.89
2023-05-04T08:31:13.247Z,38.70
2023-05-04T08:33:39.913Z,37.95
2023-05-04T08:36:08.160Z,38.55
2023-05-04T08:38:35.113Z,37.76
2023-05-04T08:41:05.909Z,38.15
2023-05-04T08:43:36.326Z,37.08
2023-05-04T08:46:04.870Z,39.58
2023-05-04T08:48:33.639Z,38.07
2023-05-04T08:51:01.173Z,37.49
2023-05-04T08:53:29.924Z,38.15
2023-05-04T08:55:59.145Z,35.99
2023-05-04T08:58:27.623Z,36.63
2023-05-04T09:00:55.821Z,39.10
2023-05-04T09:03:23.336Z,35.53
2023-05-04T09:05:51.000Z,36.39
2023-05-04T09:08:17.999Z,37.06
2023-05-04T09:10:44.517Z,35.96
2023-05-04T09:13:11.271Z,35.43
2023-05-04T09:15:37.947Z,34.60
2023-05-04T09:18:06.483Z,33.83
2023-05-04T09:20:47.382Z,34.07
2023-05-04T09:23:15.524Z,36.45
2023-05-04T09:25:55.293Z,34.64
2023-05-04T09:28:43.570Z,32.61
2023-05-04T09:31:11.913Z,31.71
2023-05-04T09:33:38.556Z,34.34
2023-05-04T09:36:21.946Z,35.08
2023-05-04T09:38:48.831Z,34.43
2023-05-04T09:41:15.467Z,32.06
2023-05-04T09:43:44.026Z,33.58
2023-05-04T09:46:18.299Z,33.60
2023-05-04T09:48:56.692Z,32.15
2023-05-04T09:51:24.762Z,35.57
2023-05-04T09:53:52.014Z,32.81
2023-05-04T09:56:52.387Z,33.12
2023-05-04T09:59:20.837Z,33.10
2023-05-04T10:01:47.921Z,31.74
2023-05-04T10:04:14.595Z,31.22
2023-05-04T10:06:43.231Z,30.39
2023-05-04T10:09:11.575Z,30.58
2023-05-04T10:11:38.342Z,30.33
2023-05-04T10:14:04.871Z,29.65
2023-05-04T10:16:45.043Z,30.89
2023-05-04T10:19:23.675Z,30.71
2023-05-04T10:21:58.911Z,28.79
2023-05-04T10:25:12.292Z,29.55
2023-05-04T10:28:02.136Z,28.28
2023-05-04T10:30:29.401Z,26.71
2023-05-04T10:32:59.591Z,25.82
2023-05-04T10:35:26.968Z,25.42
2023-05-04T10:37:54.872Z,26.36
2023-05-04T10:40:40.930Z,26.83
2023-05-04T10:43:08.745Z,26.44
2023-05-04T10:45:39.663Z,26.29
2023-05-04T10:48:08.089Z,25.83
2023-05-04T10:50:49.544Z,25.51
2023-05-04T10:53:17.778Z,26.04
2023-05-04T10:55:48.605Z,26.67
2023-05-04T10:58:21.500Z,25.35
2023-05-04T11:00:51.623Z,23.33
2023-05-04T11:03:19.282Z,25.78
2023-05-04T11:05:50.812Z,25.21
2023-05-04T11:08:19.591Z,25.39
2023-05-04T11:10:47.896Z,24.72
2023-05-04T11:13:16.225Z,24.44
2023-05-04T11:15:50.255Z,24.62
2023-05-04T11:18:29.257Z,29.11
2023-05-04T11:20:56.197Z,25.57
2023-05-04T11:23:23.302Z,25.51
2023-05-04T11:25:50.827Z,26.55
2023-05-04T11:28:17.463Z,25.60
2023-05-04T11:30:46.193Z,26.11
2023-05-04T11:33:14.327Z,26.71
2023-05-04T11:35:42.425Z,26.59
2023-05-04T11:38:09.068Z,25.27
2023-05-04T11:40:37.439Z,24.62
2023-05-04T11:43:04.298Z,24.98
2023-05-04T11:45:34.717Z,24.74
2023-05-04T11:48:02.113Z,25.07
2023-05-04T11:50:29.276Z,24.20
2023-05-04T11:53:08.961Z,23.05
2023-05-04T11:55:36.087Z,20.88
2023-05-04T11:58:07.934Z,23.49
2023-05-04T12:00:46.933Z,23.21
2023-05-04T12:03:15.724Z,23.55
2023-05-04T12:05:51.185Z,23.47
2023-05-04T12:08:29.953Z,23.90
2023-05-04T12:11:09.072Z,24.15
2023-05-04T12:13:36.108Z,23.13
2023-05-04T12:16:28.752Z,22.40
2023-05-04T12:19:21.678Z,20.95
2023-05-04T12:21:53.336Z,22.52
2023-05-04T12:24:22.518Z,21.72
2023-05-04T12:26:49.673Z,23.70
2023-05-04T12:29:16.687Z,22.98
2023-05-04T12:31:43.182Z,25.42
2023-05-04T12:34:09.627Z,24.68
2023-05-04T12:36:36.120Z,23.96
2023-05-04T12:39:02.629Z,23.60
2023-05-04T12:41:29.144Z,22.08
2023-05-04T12:43:55.974Z,24.00
2023-05-04T12:46:22.849Z,24.26
2023-05-04T12:48:49.474Z,26.10
2023-05-04T12:51:16.151Z,24.73
2023-05-04T12:53:43.707Z,23.89
2023-05-04T12:56:10.222Z,23.74
2023-05-04T12:58:36.745Z,24.18
2023-05-04T13:01:03.744Z,24.77
2023-05-04T13:03:30.417Z,24.23
2023-05-04T13:05:57.952Z,23.12
2023-05-04T13:08:24.970Z,23.33
2023-05-04T13:10:52.155Z,23.46
2023-05-04T13:13:19.234Z,25.44
2023-05-04T13:15:50.030Z,26.06
2023-05-04T13:18:16.807Z,25.26
2023-05-04T13:20:43.431Z,26.20
2023-05-04T13:23:09.954Z,25.94
2023-05-04T13:25:36.444Z,27.34
2023-05-04T13:28:03.514Z,26.10
2023-05-04T13:30:29.999Z,24.39
2023-05-04T13:32:56.686Z,25.24
2023-05-04T13:35:23.866Z,25.82
2023-05-04T13:37:50.861Z,23.77
2023-05-04T13:40:17.411Z,23.58
2023-05-04T13:42:44.065Z,24.04
2023-05-04T13:45:10.867Z,25.68
2023-05-04T13:47:37.760Z,24.93
2023-05-04T13:50:04.936Z,24.61
2023-05-04T13:52:32.445Z,25.10
2023-05-04T13:54:59.665Z,26.99
2023-05-04T13:57:29.760Z,25.90
2023-05-04T14:00:06.678Z,27.96
2023-05-04T14:02:34.015Z,27.85
2023-05-04T14:05:01.395Z,26.61
2023-05-04T14:07:27.934Z,30.49
2023-05-04T14:09:56.039Z,26.47
2023-05-04T14:12:22.809Z,27.74
2023-05-04T14:14:50.707Z,27.96
2023-05-04T14:17:17.543Z,27.23
2023-05-04T14:19:44.729Z,28.06
2023-05-04T14:22:11.234Z,28.85
2023-05-04T14:24:37.830Z,28.03
2023-05-04T14:27:04.401Z,30.68
2023-05-04T14:29:32.303Z,29.21
2023-05-04T14:31:58.919Z,28.14
2023-05-04T14:34:25.553Z,28.73
2023-05-04T14:37:09.181Z,29.48
2023-05-04T14:39:36.578Z,27.61
2023-05-04T14:42:03.243Z,27.96
2023-05-04T14:44:30.123Z,29.22
2023-05-04T14:46:56.856Z,28.27
2023-05-04T14:49:35.518Z,30.15
2023-05-04T14:52:03.809Z,29.52
2023-05-04T14:54:30.352Z,29.85
2023-05-04T14:56:57.105Z,28.79
2023-05-04T14:59:23.621Z,28.49
2023-05-04T15:01:50.252Z,29.35
2023-05-04T15:04:17.140Z,28.15
2023-05-04T15:06:43.591Z,29.17
2023-05-04T15:09:10.029Z,29.86
2023-05-04T15:11:36.704Z,29.26
2023-05-04T15:14:03.446Z,29.23
2023-05-04T15:16:32.424Z,32.77
2023-05-04T15:18:59.394Z,30.12
2023-05-04T15:21:26.363Z,30.18
2023-05-04T15:23:52.895Z,29.77
2023-05-04T15:26:19.449Z,30.33
2023-05-04T15:28:46.021Z,30.30
2023-05-04T15:31:13.037Z,29.84
2023-05-04T15:33:39.492Z,30.00
2023-05-04T15:36:07.963Z,30.01
2023-05-04T15:38:35.134Z,30.62
2023-05-04T15:41:02.190Z,31.76
2023-05-04T15:43:29.559Z,31.52
2023-05-04T15:45:56.078Z,33.86
2023-05-04T15:48:22.602Z,33.87
2023-05-04T15:50:49.431Z,33.37
2023-05-04T15:53:15.998Z,33.11
2023-05-04T15:55:42.590Z,33.64
2023-05-04T15:58:10.671Z,34.33
2023-05-04T16:00:38.266Z,34.32
2023-05-04T16:03:08.108Z,34.58
2023-05-04T16:05:34.925Z,34.27
2023-05-04T16:08:01.855Z,33.96
2023-05-04T16:10:28.286Z,35.08
2023-05-04T16:12:54.817Z,34.31
2023-05-04T16:15:21.507Z,33.83
2023-05-04T16:17:47.944Z,35.46
2023-05-04T16:20:14.467Z,36.04
2023-05-04T16:22:41.014Z,35.64
2023-05-04T16:25:08.832Z,34.00
2023-05-04T16:27:36.798Z,35.04
2023-05-04T16:30:03.449Z,33.50
2023-05-04T16:32:29.942Z,34.17
2023-05-04T16:34:56.427Z,34.13
2023-05-04T16:37:22.911Z,35.22
2023-05-04T16:39:49.349Z,35.69
2023-05-04T16:42:15.935Z,34.74
2023-05-04T16:44:42.442Z,34.83
2023-05-04T16:47:08.996Z,35.36
2023-05-04T16:49:35.491Z,35.49
2023-05-04T16:52:03.306Z,35.54
2023-05-04T16:54:29.973Z,36.59
2023-05-04T16:56:56.669Z,38.88
2023-05-04T16:59:23.459Z,37.77
2023-05-04T17:01:50.103Z,39.75
2023-05-04T17:04:16.753Z,36.61
2023-05-04T17:06:43.322Z,35.78
2023-05-04T17:09:09.916Z,36.32
2023-05-04T17:11:36.486Z,36.63
2023-05-04T17:14:03.591Z,38.07
2023-05-04T17:16:30.161Z,38.87
2023-05-04T17:18:56.660Z,36.32
2023-05-04T17:21:23.204Z,37.90
2023-05-04T17:23:49.656Z,39.71
2023-05-04T17:26:16.100Z,37.07
2023-05-04T17:28:42.901Z,38.87
2023-05-04T17:31:12.578Z,40.20
2023-05-04T17:33:39.684Z,40.01
2023-05-04T17:36:07.709Z,40.67
2023-05-04T17:38:34.374Z,38.49
2023-05-04T17:41:00.929Z,40.72
2023-05-04T17:43:27.409Z,40.39
2023-05-04T17:45:55.809Z,39.31
2023-05-04T17:48:24.088Z,39.14
2023-05-04T17:50:51.117Z,39.02
2023-05-04T17:53:17.559Z,39.08
2023-05-04T17:55:44.104Z,40.91
2023-05-04T17:58:10.839Z,40.56
2023-05-04T18:00:37.445Z,40.15
2023-05-04T18:03:04.324Z,40.93
2023-05-04T18:05:32.010Z,39.17
2023-05-04T18:07:58.674Z,40.39
2023-05-04T18:10:25.276Z,40.35
2023-05-04T18:12:51.802Z,41.93
2023-05-04T18:15:18.540Z,43.05
2023-05-04T18:17:45.095Z,42.51
2023-05-04T18:20:13.101Z,43.08
2023-05-04T18:22:39.663Z,44.71
2023-05-04T18:25:06.807Z,45.19
2023-05-04T18:27:34.629Z,46.00
2023-05-04T18:30:02.182Z,46.31
2023-05-04T18:32:28.884Z,46.99
2023-05-04T18:34:57.821Z,47.21
2023-05-04T18:37:25.017Z,47.10
2023-05-04T18:39:51.560Z,47.55
2023-05-04T18:42:18.054Z,47.37
2023-05-04T18:44:44.549Z,43.99
2023-05-04T18:47:11.364Z,41.11
2023-05-04T18:49:38.171Z,40.65
2023-05-04T18:52:05.063Z,41.40
2023-05-04T18:54:32.345Z,40.99
2023-05-04T18:56:59.242Z,40.90
2023-05-04T18:59:25.942Z,42.47
2023-05-04T19:01:53.066Z,41.92
2023-05-04T19:04:19.689Z,42.25
2023-05-04T19:06:47.649Z,42.45
2023-05-04T19:09:14.883Z,42.19
2023-05-04T19:11:41.439Z,42.71
2023-05-04T19:14:08.009Z,42.44
2023-05-04T19:16:34.507Z,42.67
2023-05-04T19:19:00.969Z,42.55
2023-05-04T19:21:28.473Z,42.84
2023-05-04T19:23:55.126Z,42.84
2023-05-04T19:26:21.904Z,42.76
2023-05-04T19:28:48.396Z,43.10
2023-05-04T19:31:15.489Z,43.64
2023-05-04T19:33:48.594Z,44.96
2023-05-04T19:36:17.003Z,45.44
2023-05-04T19:38:43.800Z,45.70
2023-05-04T19:41:10.415Z,43.89
2023-05-04T19:43:38.455Z,43.24
2023-05-04T19:46:05.060Z,43.13
2023-05-04T19:48:31.849Z,43.38
2023-05-04T19:50:58.435Z,44.91
2023-05-04T19:53:25.255Z,44.62
2023-05-04T19:55:52.913Z,45.05
2023-05-04T19:58:19.501Z,44.99
2023-05-04T20:00:46.078Z,47.83
2023-05-04T20:03:12.588Z,46.44
2023-05-04T20:05:39.415Z,49.69
2023-05-04T20:08:05.837Z,49.15
2023-05-04T20:10:32.421Z,49.09
2023-05-04T20:12:59.034Z,48.73
2023-05-04T20:15:25.986Z,50.48
2023-05-04T20:17:52.718Z,51.44
2023-05-04T20:20:21.492Z,52.51
2023-05-04T20:22:52.184Z,52.53
2023-05-04T20:25:19.940Z,52.89
2023-05-04T20:27:48.563Z,52.86
2023-05-04T20:30:15.424Z,53.72
2023-05-04T20:32:42.613Z,54.15
2023-05-04T20:35:09.435Z,54.91
2023-05-04T20:37:35.992Z,55.72
2023-05-04T20:40:02.551Z,55.85
2023-05-04T20:42:29.380Z,55.97
2023-05-04T20:44:55.863Z,56.61
2023-05-04T20:47:22.613Z,57.09
2023-05-04T20:49:49.229Z,58.19
2023-05-04T20:52:16.044Z,59.45
2023-05-04T20:54:42.494Z,59.12
2023-05-04T20:57:09.077Z,59.13
2023-05-04T20:59:35.575Z,60.34
2023-05-04T21:02:02.048Z,59.26
2023-05-04T21:04:28.569Z,60.23
2023-05-04T21:06:56.926Z,61.00
2023-05-04T21:09:23.452Z,61.21
2023-05-04T21:11:50.012Z,61.95
2023-05-04T21:14:16.520Z,61.99
2023-05-04T21:16:43.014Z,62.46
2023-05-04T21:19:09.595Z,62.76
2023-05-04T21:21:40.617Z,62.51
2023-05-04T21:24:12.153Z,61.08
2023-05-04T21:26:39.107Z,60.26
2023-05-04T21:29:05.826Z,60.88
2023-05-04T21:31:33.274Z,60.50
2023-05-04T21:33:59.912Z,60.44
2023-05-04T21:36:27.432Z,60.92
2023-05-04T21:38:55.248Z,60.98
2023-05-04T21:41:22.240Z,61.44
2023-05-04T21:43:48.752Z,60.88
2023-05-04T21:46:15.561Z,60.98
2023-05-04T21:48:42.189Z,60.93
2023-05-04T21:51:08.890Z,59.96
2023-05-04T21:53:35.580Z,59.95
2023-05-04T21:56:06.503Z,61.03
2023-05-04T21:58:33.134Z,60.98
2023-05-04T22:00:59.816Z,63.13
2023-05-04T22:03:28.475Z,65.57
2023-05-04T22:05:57.681Z,65.97
2023-05-04T22:08:25.140Z,66.43
2023-05-04T22:10:53.635Z,68.06
2023-05-04T22:13:20.164Z,69.39
2023-05-04T22:15:50.295Z,70.34
2023-05-04T22:18:17.312Z,69.81
2023-05-04T22:20:43.862Z,70.58
2023-05-04T22:23:10.553Z,69.79
2023-05-04T22:25:37.073Z,70.08
2023-05-04T22:28:03.823Z,71.15
2023-05-04T22:30:30.493Z,71.25
2023-05-04T22:32:57.562Z,72.84
2023-05-04T22:35:24.279Z,72.85
2023-05-04T22:37:50.958Z,74.22
2023-05-04T22:40:17.585Z,75.46
2023-05-04T22:42:47.568Z,73.76
2023-05-04T22:45:14.861Z,72.92
2023-05-04T22:47:42.260Z,74.89
2023-05-04T22:50:10.452Z,75.00
2023-05-04T22:52:38.102Z,74.19
2023-05-04T22:55:05.755Z,75.12
2023-05-04T22:57:32.347Z,76.27
2023-05-04T22:59:58.851Z,77.80
2023-05-04T23:02:25.697Z,78.01
2023-05-04T23:04:53.226Z,75.84
2023-05-04T23:07:19.825Z,76.50
2023-05-04T23:09:47.056Z,76.28
2023-05-04T23:12:14.438Z,76.47
2023-05-04T23:14:41.640Z,76.71
2023-05-04T23:17:08.518Z,76.19
2023-05-04T23:19:35.026Z,76.08
2023-05-04T23:22:01.556Z,76.03
2023-05-04T23:24:28.086Z,76.17
2023-05-04T23:26:54.528Z,76.95
2023-05-04T23:29:21.158Z,76.45
2023-05-04T23:31:47.696Z,78.65
2023-05-04T23:34:14.152Z,79.94
2023-05-04T23:36:40.737Z,81.74
2023-05-04T23:39:07.332Z,80.70
2023-05-04T23:41:34.178Z,80.82
2023-05-04T23:44:01.513Z,81.09
2023-05-04T23:46:28.002Z,79.30
2023-05-04T23:48:54.537Z,77.80
2023-05-04T23:51:21.329Z,79.76
2023-05-04T23:53:47.913Z,80.23
2023-05-04T23:56:14.844Z,80.00
2023-05-04T23:58:41.706Z,80.80
